sensor_id;sensor_type;location;lat;lon;timestamp;pressure;altitude;pressure_sealevel;temperature;humidity
56006;BME280;41888;44.696;10.522;2022-09-29T00:01:58;98788.16;;;13.62;100.00
56006;BME280;41888;44.696;10.522;2022-09-29T00:04:24;98778.28;;;13.58;100.00
56006;BME280;41888;44.696;10.522;2022-09-29T00:06:50;98784.69;;;13.67;100.00
56006;BME280;41888;44.696;10.522;2022-09-29T00:09:17;98786.81;;;13.65;100.00
56006;BME280;41888;44.696;10.522;2022-09-29T00:11:43;98784.13;;;13.60;100.00
56006;BME280;41888;44.696;10.522;2022-09-29T00:14:09;98780.63;;;13.49;100.00
56006;BME280;41888;44.696;10.522;2022-09-29T00:16:35;98796.41;;;13.56;100.00
56006;BME280;41888;44.696;10.522;2022-09-29T00:19:01;98796.16;;;13.52;100.00
56006;BME280;41888;44.696;10.522;2022-09-29T00:21:28;98798.78;;;13.37;100.00
56006;BME280;41888;44.696;10.522;2022-09-29T00:23:54;98796.59;;;13.29;100.00
56006;BME280;41888;44.696;10.522;2022-09-29T00:26:22;98789.41;;;13.34;100.00
56006;BME280;41888;44.696;10.522;2022-09-29T00:28:53;98789.44;;;13.44;100.00
56006;BME280;41888;44.696;10.522;2022-09-29T00:31:24;98798.00;;;13.41;100.00
56006;BME280;41888;44.696;10.522;2022-09-29T00:33:50;98808.97;;;13.50;100.00
56006;BME280;41888;44.696;10.522;2022-09-29T00:36:18;98806.22;;;13.25;100.00
56006;BME280;41888;44.696;10.522;2022-09-29T00:38:45;98813.72;;;13.33;100.00
56006;BME280;41888;44.696;10.522;2022-09-29T00:41:17;98806.81;;;13.37;100.00
56006;BME280;41888;44.696;10.522;2022-09-29T00:46:24;98801.66;;;13.20;100.00
56006;BME280;41888;44.696;10.522;2022-09-29T00:48:53;98795.50;;;13.20;100.00
56006;BME280;41888;44.696;10.522;2022-09-29T00:51:21;98796.56;;;13.19;100.00
56006;BME280;41888;44.696;10.522;2022-09-29T00:53:47;98802.34;;;13.00;100.00
56006;BME280;41888;44.696;10.522;2022-09-29T00:56:15;98796.22;;;13.05;100.00
56006;BME280;41888;44.696;10.522;2022-09-29T00:58:55;98793.81;;;13.03;100.00
56006;BME280;41888;44.696;10.522;2022-09-29T01:01:22;98793.28;;;13.06;100.00
56006;BME280;41888;44.696;10.522;2022-09-29T01:03:54;98795.94;;;13.06;100.00
56006;BME280;41888;44.696;10.522;2022-09-29T01:06:45;98794.22;;;12.85;100.00
56006;BME280;41888;44.696;10.522;2022-09-29T01:09:19;98797.38;;;12.72;100.00
56006;BME280;41888;44.696;10.522;2022-09-29T01:11:46;98787.31;;;12.84;100.00
56006;BME280;41888;44.696;10.522;2022-09-29T01:14:13;98780.41;;;12.93;100.00
56006;BME280;41888;44.696;10.522;2022-09-29T01:16:41;98776.66;;;12.89;100.00
56006;BME280;41888;44.696;10.522;2022-09-29T01:19:53;98773.16;;;12.84;100.00
56006;BME280;41888;44.696;10.522;2022-09-29T01:35:46;98777.47;;;12.90;100.00
56006;BME280;41888;44.696;10.522;2022-09-29T01:43:56;98777.94;;;12.82;100.00
56006;BME280;41888;44.696;10.522;2022-09-29T01:46:35;98777.44;;;12.85;100.00
56006;BME280;41888;44.696;10.522;2022-09-29T01:49:03;98788.13;;;12.85;100.00
56006;BME280;41888;44.696;10.522;2022-09-29T01:51:46;98790.69;;;12.69;100.00
56006;BME280;41888;44.696;10.522;2022-09-29T01:54:22;98801.31;;;12.64;100.00
56006;BME280;41888;44.696;10.522;2022-09-29T01:57:18;98788.31;;;12.73;100.00
56006;BME280;41888;44.696;10.522;2022-09-29T02:00:00;98791.44;;;12.60;100.00
56006;BME280;41888;44.696;10.522;2022-09-29T02:02:38;98792.03;;;12.72;100.00
56006;BME280;41888;44.696;10.522;2022-09-29T02:05:13;98791.97;;;12.62;100.00
56006;BME280;41888;44.696;10.522;2022-09-29T02:07:44;98804.50;;;12.61;100.00
56006;BME280;41888;44.696;10.522;2022-09-29T02:10:21;98815.59;;;12.85;100.00
56006;BME280;41888;44.696;10.522;2022-09-29T02:12:50;98811.00;;;12.76;100.00
56006;BME280;41888;44.696;10.522;2022-09-29T02:15:24;98802.97;;;12.70;100.00
56006;BME280;41888;44.696;10.522;2022-09-29T02:17:53;98810.56;;;12.47;100.00
56006;BME280;41888;44.696;10.522;2022-09-29T02:20:21;98804.22;;;12.53;100.00
56006;BME280;41888;44.696;10.522;2022-09-29T02:22:47;98808.94;;;12.46;100.00
56006;BME280;41888;44.696;10.522;2022-09-29T02:25:16;98792.94;;;12.46;100.00
56006;BME280;41888;44.696;10.522;2022-09-29T02:27:43;98790.63;;;12.59;100.00
56006;BME280;41888;44.696;10.522;2022-09-29T02:30:10;98790.09;;;12.57;100.00
56006;BME280;41888;44.696;10.522;2022-09-29T02:32:37;98777.75;;;12.46;100.00
56006;BME280;41888;44.696;10.522;2022-09-29T02:35:05;98790.53;;;12.44;100.00
56006;BME280;41888;44.696;10.522;2022-09-29T02:41:05;98784.53;;;12.69;100.00
56006;BME280;41888;44.696;10.522;2022-09-29T02:46:34;98780.34;;;12.78;100.00
56006;BME280;41888;44.696;10.522;2022-09-29T02:51:39;98777.75;;;12.93;100.00
56006;BME280;41888;44.696;10.522;2022-09-29T02:54:44;98775.91;;;13.04;100.00
56006;BME280;41888;44.696;10.522;2022-09-29T03:02:41;98771.06;;;12.49;100.00
56006;BME280;41888;44.696;10.522;2022-09-29T03:05:13;98766.59;;;12.59;100.00
56006;BME280;41888;44.696;10.522;2022-09-29T03:07:41;98768.84;;;12.78;100.00
56006;BME280;41888;44.696;10.522;2022-09-29T03:10:08;98761.91;;;12.77;100.00
56006;BME280;41888;44.696;10.522;2022-09-29T03:12:35;98757.94;;;12.79;100.00
56006;BME280;41888;44.696;10.522;2022-09-29T03:15:02;98770.69;;;12.72;100.00
56006;BME280;41888;44.696;10.522;2022-09-29T03:17:28;98761.59;;;12.68;100.00
56006;BME280;41888;44.696;10.522;2022-09-29T03:19:54;98755.53;;;12.83;100.00
56006;BME280;41888;44.696;10.522;2022-09-29T03:22:20;98754.72;;;12.82;100.00
56006;BME280;41888;44.696;10.522;2022-09-29T03:24:46;98748.31;;;12.78;100.00
56006;BME280;41888;44.696;10.522;2022-09-29T03:27:13;98752.59;;;12.79;100.00
56006;BME280;41888;44.696;10.522;2022-09-29T03:29:39;98754.63;;;12.62;100.00
56006;BME280;41888;44.696;10.522;2022-09-29T03:32:05;98751.06;;;12.46;100.00
56006;BME280;41888;44.696;10.522;2022-09-29T03:34:32;98749.31;;;12.67;100.00
56006;BME280;41888;44.696;10.522;2022-09-29T03:36:59;98748.63;;;12.40;100.00
56006;BME280;41888;44.696;10.522;2022-09-29T03:39:25;98764.38;;;12.41;100.00
56006;BME280;41888;44.696;10.522;2022-09-29T03:41:51;98768.50;;;12.64;100.00
56006;BME280;41888;44.696;10.522;2022-09-29T03:44:18;98748.50;;;12.61;100.00
56006;BME280;41888;44.696;10.522;2022-09-29T03:46:44;98750.38;;;12.66;100.00
56006;BME280;41888;44.696;10.522;2022-09-29T03:49:13;98749.53;;;12.55;100.00
56006;BME280;41888;44.696;10.522;2022-09-29T03:51:40;98746.97;;;12.34;100.00
56006;BME280;41888;44.696;10.522;2022-09-29T03:54:07;98755.88;;;12.12;100.00
56006;BME280;41888;44.696;10.522;2022-09-29T03:56:34;98761.09;;;12.29;100.00
56006;BME280;41888;44.696;10.522;2022-09-29T03:59:00;98762.44;;;12.32;100.00
56006;BME280;41888;44.696;10.522;2022-09-29T04:01:28;98764.38;;;12.04;100.00
56006;BME280;41888;44.696;10.522;2022-09-29T04:03:54;98773.88;;;11.95;100.00
56006;BME280;41888;44.696;10.522;2022-09-29T04:06:21;98782.13;;;12.25;100.00
56006;BME280;41888;44.696;10.522;2022-09-29T04:08:47;98765.19;;;12.42;100.00
56006;BME280;41888;44.696;10.522;2022-09-29T04:11:14;98754.13;;;12.28;100.00
56006;BME280;41888;44.696;10.522;2022-09-29T04:13:41;98742.59;;;12.17;100.00
56006;BME280;41888;44.696;10.522;2022-09-29T04:16:07;98750.13;;;12.25;100.00
56006;BME280;41888;44.696;10.522;2022-09-29T04:18:34;98766.13;;;12.25;100.00
56006;BME280;41888;44.696;10.522;2022-09-29T04:21:05;98755.16;;;12.22;100.00
56006;BME280;41888;44.696;10.522;2022-09-29T04:23:32;98756.78;;;12.23;100.00
56006;BME280;41888;44.696;10.522;2022-09-29T04:25:59;98760.91;;;12.41;100.00
56006;BME280;41888;44.696;10.522;2022-09-29T04:28:31;98757.09;;;12.26;100.00
56006;BME280;41888;44.696;10.522;2022-09-29T04:30:57;98767.06;;;12.09;100.00
56006;BME280;41888;44.696;10.522;2022-09-29T04:33:24;98759.31;;;12.08;100.00
56006;BME280;41888;44.696;10.522;2022-09-29T04:35:50;98769.00;;;12.19;100.00
56006;BME280;41888;44.696;10.522;2022-09-29T04:38:16;98772.59;;;12.35;100.00
56006;BME280;41888;44.696;10.522;2022-09-29T04:40:43;98765.69;;;12.39;100.00
56006;BME280;41888;44.696;10.522;2022-09-29T04:43:09;98765.38;;;12.30;100.00
56006;BME280;41888;44.696;10.522;2022-09-29T04:45:35;98754.53;;;12.47;100.00
56006;BME280;41888;44.696;10.522;2022-09-29T04:48:01;98760.13;;;12.45;100.00
56006;BME280;41888;44.696;10.522;2022-09-29T04:50:27;98759.22;;;12.30;100.00
56006;BME280;41888;44.696;10.522;2022-09-29T04:52:54;98769.56;;;12.21;100.00
56006;BME280;41888;44.696;10.522;2022-09-29T04:55:20;98774.63;;;12.22;100.00
56006;BME280;41888;44.696;10.522;2022-09-29T04:57:46;98782.31;;;12.14;100.00
56006;BME280;41888;44.696;10.522;2022-09-29T05:00:14;98771.34;;;12.10;100.00
56006;BME280;41888;44.696;10.522;2022-09-29T05:02:40;98776.72;;;12.15;100.00
56006;BME280;41888;44.696;10.522;2022-09-29T05:05:07;98779.97;;;12.22;100.00
56006;BME280;41888;44.696;10.522;2022-09-29T05:07:35;98781.56;;;12.23;100.00
56006;BME280;41888;44.696;10.522;2022-09-29T05:10:02;98781.69;;;12.39;100.00
56006;BME280;41888;44.696;10.522;2022-09-29T05:12:28;98777.97;;;12.40;100.00
56006;BME280;41888;44.696;10.522;2022-09-29T05:14:54;98785.47;;;12.48;100.00
56006;BME280;41888;44.696;10.522;2022-09-29T05:17:20;98796.00;;;12.27;100.00
56006;BME280;41888;44.696;10.522;2022-09-29T05:19:46;98783.91;;;12.15;100.00
56006;BME280;41888;44.696;10.522;2022-09-29T05:22:13;98790.31;;;12.14;100.00
56006;BME280;41888;44.696;10.522;2022-09-29T05:24:39;98790.91;;;12.21;100.00
56006;BME280;41888;44.696;10.522;2022-09-29T05:27:05;98803.34;;;12.10;100.00
56006;BME280;41888;44.696;10.522;2022-09-29T05:29:31;98782.66;;;11.96;100.00
56006;BME280;41888;44.696;10.522;2022-09-29T05:31:57;98799.78;;;12.00;100.00
56006;BME280;41888;44.696;10.522;2022-09-29T05:34:23;98800.81;;;12.25;100.00
56006;BME280;41888;44.696;10.522;2022-09-29T05:36:50;98802.66;;;13.09;100.00
56006;BME280;41888;44.696;10.522;2022-09-29T05:39:16;98797.84;;;14.14;100.00
56006;BME280;41888;44.696;10.522;2022-09-29T05:41:42;98797.16;;;15.13;100.00
56006;BME280;41888;44.696;10.522;2022-09-29T05:44:08;98803.91;;;15.70;100.00
56006;BME280;41888;44.696;10.522;2022-09-29T05:46:35;98800.38;;;16.13;100.00
56006;BME280;41888;44.696;10.522;2022-09-29T05:49:01;98797.81;;;17.13;100.00
56006;BME280;41888;44.696;10.522;2022-09-29T05:51:27;98803.53;;;17.73;100.00
56006;BME280;41888;44.696;10.522;2022-09-29T05:53:54;98804.59;;;18.42;97.22
56006;BME280;41888;44.696;10.522;2022-09-29T05:56:25;98804.38;;;18.57;95.62
56006;BME280;41888;44.696;10.522;2022-09-29T05:58:52;98810.63;;;19.67;89.77
56006;BME280;41888;44.696;10.522;2022-09-29T06:01:23;98803.72;;;19.47;89.77
56006;BME280;41888;44.696;10.522;2022-09-29T06:03:52;98813.47;;;20.06;85.83
56006;BME280;41888;44.696;10.522;2022-09-29T06:06:20;98828.41;;;20.48;84.32
56006;BME280;41888;44.696;10.522;2022-09-29T06:08:47;98833.94;;;20.65;82.62
56006;BME280;41888;44.696;10.522;2022-09-29T06:11:19;98817.44;;;21.06;80.33
56006;BME280;41888;44.696;10.522;2022-09-29T06:13:48;98812.41;;;21.96;76.11
56006;BME280;41888;44.696;10.522;2022-09-29T06:16:15;98812.72;;;21.21;78.29
56006;BME280;41888;44.696;10.522;2022-09-29T06:18:42;98803.03;;;20.58;82.53
56006;BME280;41888;44.696;10.522;2022-09-29T06:21:09;98813.88;;;21.28;79.63
56006;BME280;41888;44.696;10.522;2022-09-29T06:23:36;98821.00;;;20.85;81.42
56006;BME280;41888;44.696;10.522;2022-09-29T06:26:07;98819.03;;;20.46;83.57
56006;BME280;41888;44.696;10.522;2022-09-29T06:28:34;98818.88;;;20.73;83.43
56006;BME280;41888;44.696;10.522;2022-09-29T06:31:06;98813.94;;;22.74;75.76
56006;BME280;41888;44.696;10.522;2022-09-29T06:33:33;98820.91;;;23.60;70.47
56006;BME280;41888;44.696;10.522;2022-09-29T06:36:04;98817.22;;;24.60;66.88
56006;BME280;41888;44.696;10.522;2022-09-29T06:38:51;98817.69;;;24.95;64.83
56006;BME280;41888;44.696;10.522;2022-09-29T06:41:17;98822.72;;;24.84;64.05
56006;BME280;41888;44.696;10.522;2022-09-29T06:43:44;98817.56;;;23.63;69.60
56006;BME280;41888;44.696;10.522;2022-09-29T06:46:10;98816.56;;;24.63;66.13
56006;BME280;41888;44.696;10.522;2022-09-29T06:48:36;98813.47;;;25.34;63.47
56006;BME280;41888;44.696;10.522;2022-09-29T06:51:06;98810.31;;;25.19;62.00
56006;BME280;41888;44.696;10.522;2022-09-29T06:53:33;98810.72;;;24.40;66.02
56006;BME280;41888;44.696;10.522;2022-09-29T06:56:01;98801.19;;;22.58;72.48
56006;BME280;41888;44.696;10.522;2022-09-29T06:58:28;98812.09;;;20.53;83.37
56006;BME280;41888;44.696;10.522;2022-09-29T07:00:54;98804.94;;;19.14;94.53
56006;BME280;41888;44.696;10.522;2022-09-29T07:03:21;98795.44;;;19.16;96.85
56006;BME280;41888;44.696;10.522;2022-09-29T07:05:47;98802.72;;;18.88;98.86
56006;BME280;41888;44.696;10.522;2022-09-29T07:08:13;98797.91;;;18.58;100.00
56006;BME280;41888;44.696;10.522;2022-09-29T07:10:39;98797.72;;;18.68;100.00
56006;BME280;41888;44.696;10.522;2022-09-29T07:13:07;98806.72;;;19.59;98.77
56006;BME280;41888;44.696;10.522;2022-09-29T07:15:34;98809.13;;;19.47;99.28
56006;BME280;41888;44.696;10.522;2022-09-29T07:18:01;98818.50;;;19.36;99.30
56006;BME280;41888;44.696;10.522;2022-09-29T07:20:28;98816.94;;;18.62;100.00
56006;BME280;41888;44.696;10.522;2022-09-29T07:22:54;98829.69;;;18.05;100.00
56006;BME280;41888;44.696;10.522;2022-09-29T07:25:21;98824.13;;;17.59;100.00
56006;BME280;41888;44.696;10.522;2022-09-29T07:27:47;98822.28;;;17.36;100.00
56006;BME280;41888;44.696;10.522;2022-09-29T07:30:14;98830.94;;;17.51;100.00
56006;BME280;41888;44.696;10.522;2022-09-29T07:32:40;98824.09;;;17.83;100.00
56006;BME280;41888;44.696;10.522;2022-09-29T07:35:07;98813.03;;;18.22;100.00
56006;BME280;41888;44.696;10.522;2022-09-29T07:37:33;98812.66;;;18.09;100.00
56006;BME280;41888;44.696;10.522;2022-09-29T07:39:59;98822.38;;;18.24;100.00
56006;BME280;41888;44.696;10.522;2022-09-29T07:42:27;98826.59;;;18.30;100.00
56006;BME280;41888;44.696;10.522;2022-09-29T07:44:54;98836.97;;;18.04;100.00
56006;BME280;41888;44.696;10.522;2022-09-29T07:47:21;98833.28;;;17.58;100.00
56006;BME280;41888;44.696;10.522;2022-09-29T07:49:47;98841.78;;;17.22;100.00
56006;BME280;41888;44.696;10.522;2022-09-29T07:52:14;98854.59;;;17.30;100.00
56006;BME280;41888;44.696;10.522;2022-09-29T07:54:40;98850.91;;;17.69;100.00
56006;BME280;41888;44.696;10.522;2022-09-29T07:57:06;98850.13;;;17.87;100.00
56006;BME280;41888;44.696;10.522;2022-09-29T07:59:32;98841.59;;;18.36;100.00
56006;BME280;41888;44.696;10.522;2022-09-29T08:01:59;98858.28;;;18.52;100.00
56006;BME280;41888;44.696;10.522;2022-09-29T08:04:25;98851.88;;;18.15;100.00
56006;BME280;41888;44.696;10.522;2022-09-29T08:06:51;98851.22;;;18.24;100.00
56006;BME280;41888;44.696;10.522;2022-09-29T08:09:17;98841.91;;;18.67;100.00
56006;BME280;41888;44.696;10.522;2022-09-29T08:11:43;98844.63;;;18.81;100.00
56006;BME280;41888;44.696;10.522;2022-09-29T08:14:10;98848.28;;;19.17;100.00
56006;BME280;41888;44.696;10.522;2022-09-29T08:16:36;98845.63;;;18.52;100.00
56006;BME280;41888;44.696;10.522;2022-09-29T08:19:04;98842.78;;;18.63;100.00
56006;BME280;41888;44.696;10.522;2022-09-29T08:21:31;98832.31;;;18.29;100.00
56006;BME280;41888;44.696;10.522;2022-09-29T08:24:03;98840.19;;;18.58;100.00
56006;BME280;41888;44.696;10.522;2022-09-29T08:26:32;98840.63;;;18.65;100.00
56006;BME280;41888;44.696;10.522;2022-09-29T08:29:00;98838.84;;;18.74;100.00
56006;BME280;41888;44.696;10.522;2022-09-29T08:31:27;98841.59;;;18.55;100.00
56006;BME280;41888;44.696;10.522;2022-09-29T08:33:56;98851.03;;;18.85;100.00
56006;BME280;41888;44.696;10.522;2022-09-29T08:36:26;98840.28;;;19.26;100.00
56006;BME280;41888;44.696;10.522;2022-09-29T08:38:54;98843.16;;;19.43;100.00
56006;BME280;41888;44.696;10.522;2022-09-29T08:49:52;98846.47;;;19.40;100.00
56006;BME280;41888;44.696;10.522;2022-09-29T08:52:31;98855.56;;;19.71;100.00
56006;BME280;41888;44.696;10.522;2022-09-29T08:55:25;98859.31;;;20.20;100.00
56006;BME280;41888;44.696;10.522;2022-09-29T08:57:57;98869.47;;;21.12;100.00
56006;BME280;41888;44.696;10.522;2022-09-29T09:09:13;98870.91;;;21.49;96.20
56006;BME280;41888;44.696;10.522;2022-09-29T09:20:45;98848.91;;;22.16;94.47
56006;BME280;41888;44.696;10.522;2022-09-29T09:23:20;98858.47;;;22.39;85.49
56006;BME280;41888;44.696;10.522;2022-09-29T09:26:00;98847.63;;;23.11;81.90
56006;BME280;41888;44.696;10.522;2022-09-29T09:34:51;98853.13;;;21.74;86.67
56006;BME280;41888;44.696;10.522;2022-09-29T09:36:51;98844.44;;;22.46;86.08
56006;BME280;41888;44.696;10.522;2022-09-29T09:42:32;98854.16;;;21.95;89.58
56006;BME280;41888;44.696;10.522;2022-09-29T09:47:32;98846.50;;;22.57;84.01
56006;BME280;41888;44.696;10.522;2022-09-29T09:50:11;98841.25;;;22.18;84.57
56006;BME280;41888;44.696;10.522;2022-09-29T09:52:58;98841.56;;;22.16;85.55
56006;BME280;41888;44.696;10.522;2022-09-29T09:55:27;98833.09;;;22.44;83.69
56006;BME280;41888;44.696;10.522;2022-09-29T10:01:05;98840.81;;;23.35;79.71
56006;BME280;41888;44.696;10.522;2022-09-29T10:03:32;98836.59;;;22.53;83.46
56006;BME280;41888;44.696;10.522;2022-09-29T10:05:59;98831.22;;;22.18;83.40
56006;BME280;41888;44.696;10.522;2022-09-29T10:08:37;98826.84;;;22.78;79.12
56006;BME280;41888;44.696;10.522;2022-09-29T10:11:25;98824.00;;;23.79;74.69
56006;BME280;41888;44.696;10.522;2022-09-29T10:14:01;98829.41;;;24.42;71.46
56006;BME280;41888;44.696;10.522;2022-09-29T10:16:40;98829.47;;;25.35;69.38
56006;BME280;41888;44.696;10.522;2022-09-29T10:19:09;98828.03;;;25.38;68.31
56006;BME280;41888;44.696;10.522;2022-09-29T10:21:41;98826.16;;;25.54;69.25
56006;BME280;41888;44.696;10.522;2022-09-29T10:24:31;98832.44;;;25.30;68.71
56006;BME280;41888;44.696;10.522;2022-09-29T10:26:59;98827.56;;;25.60;66.51
56006;BME280;41888;44.696;10.522;2022-09-29T10:29:46;98823.59;;;25.21;68.20
56006;BME280;41888;44.696;10.522;2022-09-29T10:32:28;98816.31;;;26.14;67.27
56006;BME280;41888;44.696;10.522;2022-09-29T10:35:16;98822.56;;;25.13;58.91
56006;BME280;41888;44.696;10.522;2022-09-29T10:37:47;98819.50;;;25.27;55.93
56006;BME280;41888;44.696;10.522;2022-09-29T10:40:18;98813.19;;;23.91;65.94
56006;BME280;41888;44.696;10.522;2022-09-29T10:42:49;98814.13;;;24.49;69.53
56006;BME280;41888;44.696;10.522;2022-09-29T10:45:21;98806.81;;;24.29;69.53
56006;BME280;41888;44.696;10.522;2022-09-29T10:48:05;98804.94;;;25.72;63.33
56006;BME280;41888;44.696;10.522;2022-09-29T10:50:36;98807.47;;;25.52;61.25
56006;BME280;41888;44.696;10.522;2022-09-29T10:55:56;98783.94;;;26.12;63.56
56006;BME280;41888;44.696;10.522;2022-09-29T10:58:28;98799.09;;;25.21;65.93
56006;BME280;41888;44.696;10.522;2022-09-29T11:01:08;98812.91;;;25.64;65.06
56006;BME280;41888;44.696;10.522;2022-09-29T11:03:39;98790.00;;;26.93;51.85
56006;BME280;41888;44.696;10.522;2022-09-29T11:06:14;98797.75;;;27.38;44.60
56006;BME280;41888;44.696;10.522;2022-09-29T11:09:04;98800.13;;;25.93;45.28
56006;BME280;41888;44.696;10.522;2022-09-29T11:11:34;98810.22;;;24.26;47.62
56006;BME280;41888;44.696;10.522;2022-09-29T11:14:01;98794.16;;;23.12;50.38
56006;BME280;41888;44.696;10.522;2022-09-29T11:16:33;98796.28;;;22.43;52.03
56006;BME280;41888;44.696;10.522;2022-09-29T11:19:11;98799.63;;;22.57;51.30
56006;BME280;41888;44.696;10.522;2022-09-29T11:29:46;98799.97;;;21.78;52.05
56006;BME280;41888;44.696;10.522;2022-09-29T11:35:41;98792.00;;;21.73;54.03
56006;BME280;41888;44.696;10.522;2022-09-29T11:54:15;98801.25;;;22.23;56.27
56006;BME280;41888;44.696;10.522;2022-09-29T11:56:48;98804.47;;;22.08;56.24
56006;BME280;41888;44.696;10.522;2022-09-29T11:59:30;98815.25;;;21.91;55.36
56006;BME280;41888;44.696;10.522;2022-09-29T12:08:24;98801.84;;;21.52;55.86
56006;BME280;41888;44.696;10.522;2022-09-29T12:11:14;98795.47;;;21.47;55.95
56006;BME280;41888;44.696;10.522;2022-09-29T12:13:47;98797.19;;;21.35;56.49
56006;BME280;41888;44.696;10.522;2022-09-29T12:16:21;98785.38;;;21.31;57.04
56006;BME280;41888;44.696;10.522;2022-09-29T12:18:55;98780.00;;;21.39;56.63
56006;BME280;41888;44.696;10.522;2022-09-29T12:21:30;98784.47;;;21.53;57.17
56006;BME280;41888;44.696;10.522;2022-09-29T12:23:58;98783.88;;;21.56;57.02
56006;BME280;41888;44.696;10.522;2022-09-29T12:26:26;98776.34;;;21.44;57.44
56006;BME280;41888;44.696;10.522;2022-09-29T12:28:57;98784.03;;;21.51;57.81
56006;BME280;41888;44.696;10.522;2022-09-29T12:31:32;98780.66;;;21.54;57.72
56006;BME280;41888;44.696;10.522;2022-09-29T12:51:17;98768.13;;;21.92;58.67
56006;BME280;41888;44.696;10.522;2022-09-29T12:54:12;98778.16;;;21.91;58.93
56006;BME280;41888;44.696;10.522;2022-09-29T12:59:54;98775.31;;;21.97;59.39
56006;BME280;41888;44.696;10.522;2022-09-29T13:10:32;98765.19;;;23.04;54.85
56006;BME280;41888;44.696;10.522;2022-09-29T13:15:50;98759.47;;;23.55;52.51
56006;BME280;41888;44.696;10.522;2022-09-29T13:18:43;98764.28;;;23.91;51.94
56006;BME280;41888;44.696;10.522;2022-09-29T13:29:46;98768.88;;;24.12;48.88
56006;BME280;41888;44.696;10.522;2022-09-29T13:32:14;98770.38;;;23.47;51.89
56006;BME280;41888;44.696;10.522;2022-09-29T13:34:51;98779.34;;;23.47;50.00
56006;BME280;41888;44.696;10.522;2022-09-29T13:37:21;98769.19;;;23.27;51.59
56006;BME280;41888;44.696;10.522;2022-09-29T13:40:06;98765.41;;;23.49;49.25
56006;BME280;41888;44.696;10.522;2022-09-29T13:42:40;98754.16;;;23.59;48.28
56006;BME280;41888;44.696;10.522;2022-09-29T13:47:52;98757.59;;;23.18;46.79
56006;BME280;41888;44.696;10.522;2022-09-29T13:58:58;98753.72;;;22.52;50.86
56006;BME280;41888;44.696;10.522;2022-09-29T14:01:37;98753.75;;;22.35;51.01
56006;BME280;41888;44.696;10.522;2022-09-29T14:04:33;98751.28;;;22.67;50.54
56006;BME280;41888;44.696;10.522;2022-09-29T14:07:02;98756.91;;;22.37;50.22
56006;BME280;41888;44.696;10.522;2022-09-29T14:09:39;98753.91;;;22.21;50.93
56006;BME280;41888;44.696;10.522;2022-09-29T14:12:14;98750.63;;;22.15;50.67
56006;BME280;41888;44.696;10.522;2022-09-29T14:14:45;98775.13;;;22.27;51.94
56006;BME280;41888;44.696;10.522;2022-09-29T14:20:19;98763.31;;;22.32;48.55
56006;BME280;41888;44.696;10.522;2022-09-29T14:23:00;98770.56;;;22.66;48.76
56006;BME280;41888;44.696;10.522;2022-09-29T14:25:48;98762.28;;;22.62;48.43
56006;BME280;41888;44.696;10.522;2022-09-29T14:28:25;98755.66;;;22.34;48.54
56006;BME280;41888;44.696;10.522;2022-09-29T14:30:58;98767.28;;;22.43;49.43
56006;BME280;41888;44.696;10.522;2022-09-29T14:33:45;98760.78;;;22.18;49.75
56006;BME280;41888;44.696;10.522;2022-09-29T14:36:18;98767.16;;;22.22;50.23
56006;BME280;41888;44.696;10.522;2022-09-29T14:38:56;98758.53;;;22.29;47.58
56006;BME280;41888;44.696;10.522;2022-09-29T14:41:28;98757.56;;;22.33;49.80
56006;BME280;41888;44.696;10.522;2022-09-29T14:44:07;98765.38;;;22.35;47.48
56006;BME280;41888;44.696;10.522;2022-09-29T14:55:57;98766.97;;;22.45;49.03
56006;BME280;41888;44.696;10.522;2022-09-29T14:59:05;98768.72;;;22.41;49.18
56006;BME280;41888;44.696;10.522;2022-09-29T15:01:53;98753.44;;;22.27;49.96
56006;BME280;41888;44.696;10.522;2022-09-29T15:04:22;98762.03;;;22.21;48.63
56006;BME280;41888;44.696;10.522;2022-09-29T15:06:50;98766.22;;;22.18;49.33
56006;BME280;41888;44.696;10.522;2022-09-29T15:09:20;98760.03;;;22.09;49.18
56006;BME280;41888;44.696;10.522;2022-09-29T15:11:55;98770.84;;;22.01;49.36
56006;BME280;41888;44.696;10.522;2022-09-29T15:14:34;98781.16;;;21.90;49.92
56006;BME280;41888;44.696;10.522;2022-09-29T15:17:12;98785.97;;;21.93;51.11
56006;BME280;41888;44.696;10.522;2022-09-29T15:27:59;98793.75;;;21.52;52.48
56006;BME280;41888;44.696;10.522;2022-09-29T15:30:27;98783.22;;;21.50;52.05
56006;BME280;41888;44.696;10.522;2022-09-29T15:33:02;98801.03;;;21.42;52.94
56006;BME280;41888;44.696;10.522;2022-09-29T15:35:30;98794.31;;;21.31;52.31
56006;BME280;41888;44.696;10.522;2022-09-29T15:38:14;98800.56;;;21.40;52.82
56006;BME280;41888;44.696;10.522;2022-09-29T15:40:41;98794.66;;;21.30;53.28
56006;BME280;41888;44.696;10.522;2022-09-29T15:43:21;98794.16;;;21.28;53.99
56006;BME280;41888;44.696;10.522;2022-09-29T15:45:59;98795.41;;;21.22;54.25
56006;BME280;41888;44.696;10.522;2022-09-29T15:48:28;98798.81;;;21.05;54.99
56006;BME280;41888;44.696;10.522;2022-09-29T15:50:55;98807.19;;;20.95;55.47
56006;BME280;41888;44.696;10.522;2022-09-29T15:53:26;98810.03;;;20.90;56.49
56006;BME280;41888;44.696;10.522;2022-09-29T15:55:53;98808.72;;;20.79;57.18
56006;BME280;41888;44.696;10.522;2022-09-29T16:01:13;98803.44;;;20.74;58.23
56006;BME280;41888;44.696;10.522;2022-09-29T16:03:47;98817.28;;;20.72;58.55
56006;BME280;41888;44.696;10.522;2022-09-29T16:06:29;98815.03;;;20.65;58.32
56006;BME280;41888;44.696;10.522;2022-09-29T16:09:15;98814.41;;;20.46;59.04
56006;BME280;41888;44.696;10.522;2022-09-29T16:11:43;98817.19;;;20.33;59.86
56006;BME280;41888;44.696;10.522;2022-09-29T16:16:45;98815.38;;;20.06;61.39